Athinai, Greece

4:35 PM EEST on July 29, 2015 (GMT +0300)
IATTICAI2 | | Change Station
CLOSE
Current Station
Personal Weather Station
Location: Ilion, ILION
Elevation: 410 ft
Nearby Weather Stations
Active Advisory: Extreme high temperature

Elev 410 ft 38.04 °N, 23.70 °E | Updated 13 seconds ago

Partly Cloudy
Partly Cloudy
95.5 °F
Feels Like 99 °F
N
10.4
Wind Variable Wind from South
Gusts 10.4 mph

Today
High -- | Low -- °F
--% Chance of Precip.
Yesterday
High -- | Low -- °F
Precip. -- in
6:25 AM 8:37 PM
Waxing Gibbous, 95% visible
Pressure 29.71 in
Visibility 6.2 miles
Clouds Few 3000 ft
Heat Index 99 °F
Dew Point 67 °F
Humidity 39%
Rainfall 0.00 in
Snow Depth Not available.
UV 6 out of 12
Pollen Not available.
Air Quality Not available.
Flu Activity Not available.
METAR LGEL 291320Z 18009KT 9999 FEW030 37/13 Q1006

More Conditions Fewer Conditions

Pressure 29.71 in
Visibility 6.2 miles
Clouds Few 3000 ft
Heat Index 99 °F
Dew Point 67 °F
Humidity 39%
Rainfall 0.00 in
Snow Depth Not available.
UV 6 out of 12
Pollen Not available.
Air Quality Not available.
Flu Activity Not available.
METAR LGEL 291320Z 18009KT 9999 FEW030 37/13 Q1006

More Conditions Fewer Conditions

10-Day Weather Forecast

×

Almanac

Astronomy

Jul. 29, 2015 Rise Set
Actual Time
Civil Twilight
Nautical Twilight
Astronomical Twilight
Moon
Length of Visible Light
Length of Day
Tomorrow will be .
, % of the Moon is Illuminated

Today's Extremes

Country Highs Country Lows

Community

WunderPhotos

Upload Photos

1,842,094 photos uploaded!

WunderBlogs® & News

Nearby

Air Quality

  Air Quality AQ Index Pollutant
Not available.

Snow Depth

Station Depth Elevation

Earthquake Activity

City Distance Mag. Time & Date
Minimum magnitude displayed is 2.5.

Coastal Water Temperatures

Place Temperature

Stations

Nearby Weather Stations

Station Location Temp. Windchill Dew Point Humidity Wind Precip. Elev Updated Type